sensor_id;sensor_type;location;lat;lon;timestamp;P1;P2;P0
77777;PMS5003;66966;-34.746;138.604;2023-06-04T00:00:53;6;6;
77777;PMS5003;66966;-34.746;138.604;2023-06-04T00:03:18;5;5;
77777;PMS5003;66966;-34.746;138.604;2023-06-04T00:05:44;8;7;
77777;PMS5003;66966;-34.746;138.604;2023-06-04T00:08:09;6;5;
77777;PMS5003;66966;-34.746;138.604;2023-06-04T00:10:34;5;5;
77777;PMS5003;66966;-34.746;138.604;2023-06-04T00:13:00;6;6;
77777;PMS5003;66966;-34.746;138.604;2023-06-04T00:15:26;7;7;
77777;PMS5003;66966;-34.746;138.604;2023-06-04T00:17:51;6;5;
77777;PMS5003;66966;-34.746;138.604;2023-06-04T00:20:16;9;9;
77777;PMS5003;66966;-34.746;138.604;2023-06-04T00:22:42;4;4;
77777;PMS5003;66966;-34.746;138.604;2023-06-04T00:25:07;5;5;
77777;PMS5003;66966;-34.746;138.604;2023-06-04T00:27:32;6;6;
77777;PMS5003;66966;-34.746;138.604;2023-06-04T00:29:58;5;4;
77777;PMS5003;66966;-34.746;138.604;2023-06-04T00:32:23;5;5;
77777;PMS5003;66966;-34.746;138.604;2023-06-04T00:34:50;5;4;
77777;PMS5003;66966;-34.746;138.604;2023-06-04T00:37:14;5;5;
77777;PMS5003;66966;-34.746;138.604;2023-06-04T00:39:40;3;3;
77777;PMS5003;66966;-34.746;138.604;2023-06-04T00:42:05;3;3;
77777;PMS5003;66966;-34.746;138.604;2023-06-04T00:44:31;5;5;
77777;PMS5003;66966;-34.746;138.604;2023-06-04T00:46:56;3;3;
77777;PMS5003;66966;-34.746;138.604;2023-06-04T00:49:22;6;6;
77777;PMS5003;66966;-34.746;138.604;2023-06-04T00:51:47;6;6;
77777;PMS5003;66966;-34.746;138.604;2023-06-04T00:54:12;3;3;
77777;PMS5003;66966;-34.746;138.604;2023-06-04T00:56:38;4;4;
77777;PMS5003;66966;-34.746;138.604;2023-06-04T00:59:04;4;4;
77777;PMS5003;66966;-34.746;138.604;2023-06-04T01:01:31;5;5;
77777;PMS5003;66966;-34.746;138.604;2023-06-04T01:03:55;4;4;
77777;PMS5003;66966;-34.746;138.604;2023-06-04T01:06:21;4;4;
77777;PMS5003;66966;-34.746;138.604;2023-06-04T01:08:45;4;4;
77777;PMS5003;66966;-34.746;138.604;2023-06-04T01:11:11;4;4;
77777;PMS5003;66966;-34.746;138.604;2023-06-04T01:13:36;3;3;
77777;PMS5003;66966;-34.746;138.604;2023-06-04T01:16:02;4;4;
77777;PMS5003;66966;-34.746;138.604;2023-06-04T01:18:27;5;5;
77777;PMS5003;66966;-34.746;138.604;2023-06-04T01:20:53;3;3;
77777;PMS5003;66966;-34.746;138.604;2023-06-04T01:23:25;3;3;
77777;PMS5003;66966;-34.746;138.604;2023-06-04T01:25:43;4;3;
77777;PMS5003;66966;-34.746;138.604;2023-06-04T01:28:09;2;2;
77777;PMS5003;66966;-34.746;138.604;2023-06-04T01:30:34;2;2;
77777;PMS5003;66966;-34.746;138.604;2023-06-04T01:33:00;2;2;
77777;PMS5003;66966;-34.746;138.604;2023-06-04T01:35:26;2;2;
77777;PMS5003;66966;-34.746;138.604;2023-06-04T01:37:50;3;2;
77777;PMS5003;66966;-34.746;138.604;2023-06-04T01:40:16;2;2;
77777;PMS5003;66966;-34.746;138.604;2023-06-04T01:42:41;1;1;
77777;PMS5003;66966;-34.746;138.604;2023-06-04T01:45:07;3;3;
77777;PMS5003;66966;-34.746;138.604;2023-06-04T01:47:32;3;3;
77777;PMS5003;66966;-34.746;138.604;2023-06-04T01:49:57;2;2;
77777;PMS5003;66966;-34.746;138.604;2023-06-04T01:52:23;4;3;
77777;PMS5003;66966;-34.746;138.604;2023-06-04T01:54:48;5;5;
77777;PMS5003;66966;-34.746;138.604;2023-06-04T01:57:14;3;3;
77777;PMS5003;66966;-34.746;138.604;2023-06-04T01:59:39;3;2;
77777;PMS5003;66966;-34.746;138.604;2023-06-04T02:02:05;1;1;
77777;PMS5003;66966;-34.746;138.604;2023-06-04T02:04:30;4;4;
77777;PMS5003;66966;-34.746;138.604;2023-06-04T02:06:55;3;2;
77777;PMS5003;66966;-34.746;138.604;2023-06-04T02:09:21;3;3;
77777;PMS5003;66966;-34.746;138.604;2023-06-04T02:11:46;2;2;
77777;PMS5003;66966;-34.746;138.604;2023-06-04T02:14:11;3;3;
77777;PMS5003;66966;-34.746;138.604;2023-06-04T02:16:37;2;2;
77777;PMS5003;66966;-34.746;138.604;2023-06-04T02:19:03;4;4;
77777;PMS5003;66966;-34.746;138.604;2023-06-04T02:21:27;3;3;
77777;PMS5003;66966;-34.746;138.604;2023-06-04T02:23:53;4;4;
77777;PMS5003;66966;-34.746;138.604;2023-06-04T02:26:18;3;2;
77777;PMS5003;66966;-34.746;138.604;2023-06-04T02:28:44;3;3;
77777;PMS5003;66966;-34.746;138.604;2023-06-04T02:31:09;4;4;
77777;PMS5003;66966;-34.746;138.604;2023-06-04T02:33:34;4;4;
77777;PMS5003;66966;-34.746;138.604;2023-06-04T02:36:00;5;5;
77777;PMS5003;66966;-34.746;138.604;2023-06-04T02:38:25;5;4;
77777;PMS5003;66966;-34.746;138.604;2023-06-04T02:40:51;6;3;
77777;PMS5003;66966;-34.746;138.604;2023-06-04T02:43:17;6;6;
77777;PMS5003;66966;-34.746;138.604;2023-06-04T02:45:42;5;5;
77777;PMS5003;66966;-34.746;138.604;2023-06-04T02:48:07;4;4;
77777;PMS5003;66966;-34.746;138.604;2023-06-04T02:50:33;5;5;
77777;PMS5003;66966;-34.746;138.604;2023-06-04T02:52:58;5;4;
77777;PMS5003;66966;-34.746;138.604;2023-06-04T02:55:24;5;5;
77777;PMS5003;66966;-34.746;138.604;2023-06-04T02:57:49;4;4;
77777;PMS5003;66966;-34.746;138.604;2023-06-04T03:00:15;6;5;
77777;PMS5003;66966;-34.746;138.604;2023-06-04T03:02:41;7;7;
77777;PMS5003;66966;-34.746;138.604;2023-06-04T03:05:07;5;5;
77777;PMS5003;66966;-34.746;138.604;2023-06-04T03:07:31;4;4;
77777;PMS5003;66966;-34.746;138.604;2023-06-04T03:09:56;6;5;
77777;PMS5003;66966;-34.746;138.604;2023-06-04T03:12:22;6;6;
77777;PMS5003;66966;-34.746;138.604;2023-06-04T03:14:47;5;4;
77777;PMS5003;66966;-34.746;138.604;2023-06-04T03:17:12;5;4;
77777;PMS5003;66966;-34.746;138.604;2023-06-04T03:19:38;5;5;
77777;PMS5003;66966;-34.746;138.604;2023-06-04T03:22:04;3;3;
77777;PMS5003;66966;-34.746;138.604;2023-06-04T03:24:29;5;5;
77777;PMS5003;66966;-34.746;138.604;2023-06-04T03:26:54;4;4;
77777;PMS5003;66966;-34.746;138.604;2023-06-04T03:29:19;4;4;
77777;PMS5003;66966;-34.746;138.604;2023-06-04T03:31:45;3;3;
77777;PMS5003;66966;-34.746;138.604;2023-06-04T03:34:10;3;3;
77777;PMS5003;66966;-34.746;138.604;2023-06-04T03:36:35;6;6;
77777;PMS5003;66966;-34.746;138.604;2023-06-04T03:39:01;5;5;
77777;PMS5003;66966;-34.746;138.604;2023-06-04T03:41:26;4;4;
77777;PMS5003;66966;-34.746;138.604;2023-06-04T03:43:52;4;2;
77777;PMS5003;66966;-34.746;138.604;2023-06-04T03:46:17;3;3;
77777;PMS5003;66966;-34.746;138.604;2023-06-04T03:48:42;4;4;
77777;PMS5003;66966;-34.746;138.604;2023-06-04T03:51:08;5;5;
77777;PMS5003;66966;-34.746;138.604;2023-06-04T03:53:33;4;3;
77777;PMS5003;66966;-34.746;138.604;2023-06-04T03:55:59;3;3;
77777;PMS5003;66966;-34.746;138.604;2023-06-04T03:58:24;3;3;
77777;PMS5003;66966;-34.746;138.604;2023-06-04T04:00:49;3;3;
77777;PMS5003;66966;-34.746;138.604;2023-06-04T04:03:14;3;3;
77777;PMS5003;66966;-34.746;138.604;2023-06-04T04:05:40;3;3;
77777;PMS5003;66966;-34.746;138.604;2023-06-04T04:08:05;4;4;
77777;PMS5003;66966;-34.746;138.604;2023-06-04T04:10:30;3;3;
77777;PMS5003;66966;-34.746;138.604;2023-06-04T04:12:55;2;2;
77777;PMS5003;66966;-34.746;138.604;2023-06-04T04:15:21;0;0;
77777;PMS5003;66966;-34.746;138.604;2023-06-04T04:17:46;0;0;
77777;PMS5003;66966;-34.746;138.604;2023-06-04T04:20:12;1;1;
77777;PMS5003;66966;-34.746;138.604;2023-06-04T04:22:40;2;1;
77777;PMS5003;66966;-34.746;138.604;2023-06-04T04:25:02;0;0;
77777;PMS5003;66966;-34.746;138.604;2023-06-04T04:27:27;2;1;
77777;PMS5003;66966;-34.746;138.604;2023-06-04T04:29:52;2;2;
77777;PMS5003;66966;-34.746;138.604;2023-06-04T04:32:18;1;1;
77777;PMS5003;66966;-34.746;138.604;2023-06-04T04:37:08;0;0;
77777;PMS5003;66966;-34.746;138.604;2023-06-04T04:39:34;1;1;
77777;PMS5003;66966;-34.746;138.604;2023-06-04T04:41:59;1;1;
77777;PMS5003;66966;-34.746;138.604;2023-06-04T04:44:24;1;1;
77777;PMS5003;66966;-34.746;138.604;2023-06-04T04:46:49;0;0;
77777;PMS5003;66966;-34.746;138.604;2023-06-04T04:49:15;2;2;
77777;PMS5003;66966;-34.746;138.604;2023-06-04T04:51:40;2;2;
77777;PMS5003;66966;-34.746;138.604;2023-06-04T04:54:05;2;1;
77777;PMS5003;66966;-34.746;138.604;2023-06-04T04:56:32;2;1;
77777;PMS5003;66966;-34.746;138.604;2023-06-04T04:58:56;1;1;
77777;PMS5003;66966;-34.746;138.604;2023-06-04T05:01:21;1;1;
77777;PMS5003;66966;-34.746;138.604;2023-06-04T05:03:46;0;0;
77777;PMS5003;66966;-34.746;138.604;2023-06-04T05:06:12;1;1;
77777;PMS5003;66966;-34.746;138.604;2023-06-04T05:08:37;2;2;
77777;PMS5003;66966;-34.746;138.604;2023-06-04T05:11:02;1;1;
77777;PMS5003;66966;-34.746;138.604;2023-06-04T05:13:27;2;2;
77777;PMS5003;66966;-34.746;138.604;2023-06-04T05:15:53;2;2;
77777;PMS5003;66966;-34.746;138.604;2023-06-04T05:18:19;1;1;
77777;PMS5003;66966;-34.746;138.604;2023-06-04T05:20:43;1;1;
77777;PMS5003;66966;-34.746;138.604;2023-06-04T05:23:09;2;1;
77777;PMS5003;66966;-34.746;138.604;2023-06-04T05:25:34;0;0;
77777;PMS5003;66966;-34.746;138.604;2023-06-04T05:27:59;2;2;
77777;PMS5003;66966;-34.746;138.604;2023-06-04T05:30:25;1;1;
77777;PMS5003;66966;-34.746;138.604;2023-06-04T05:32:50;3;2;
77777;PMS5003;66966;-34.746;138.604;2023-06-04T05:35:16;1;1;
77777;PMS5003;66966;-34.746;138.604;2023-06-04T05:37:40;1;1;
77777;PMS5003;66966;-34.746;138.604;2023-06-04T05:40:07;1;1;
77777;PMS5003;66966;-34.746;138.604;2023-06-04T05:42:31;2;2;
77777;PMS5003;66966;-34.746;138.604;2023-06-04T05:44:56;0;0;
77777;PMS5003;66966;-34.746;138.604;2023-06-04T05:47:22;0;0;
77777;PMS5003;66966;-34.746;138.604;2023-06-04T05:49:47;2;2;
77777;PMS5003;66966;-34.746;138.604;2023-06-04T05:52:12;3;3;
77777;PMS5003;66966;-34.746;138.604;2023-06-04T05:54:38;2;2;
77777;PMS5003;66966;-34.746;138.604;2023-06-04T05:57:03;2;2;
77777;PMS5003;66966;-34.746;138.604;2023-06-04T05:59:29;3;3;
77777;PMS5003;66966;-34.746;138.604;2023-06-04T06:01:53;1;1;
77777;PMS5003;66966;-34.746;138.604;2023-06-04T06:04:19;2;2;
77777;PMS5003;66966;-34.746;138.604;2023-06-04T06:06:44;2;2;
77777;PMS5003;66966;-34.746;138.604;2023-06-04T06:09:10;1;1;
77777;PMS5003;66966;-34.746;138.604;2023-06-04T06:11:35;2;2;
77777;PMS5003;66966;-34.746;138.604;2023-06-04T06:14:01;3;3;
77777;PMS5003;66966;-34.746;138.604;2023-06-04T06:16:26;3;3;
77777;PMS5003;66966;-34.746;138.604;2023-06-04T06:18:51;4;3;
77777;PMS5003;66966;-34.746;138.604;2023-06-04T06:21:16;3;2;
77777;PMS5003;66966;-34.746;138.604;2023-06-04T06:23:42;2;2;
77777;PMS5003;66966;-34.746;138.604;2023-06-04T06:26:07;2;2;
77777;PMS5003;66966;-34.746;138.604;2023-06-04T06:28:32;3;3;
77777;PMS5003;66966;-34.746;138.604;2023-06-04T06:30:58;3;3;
77777;PMS5003;66966;-34.746;138.604;2023-06-04T06:33:23;2;2;
77777;PMS5003;66966;-34.746;138.604;2023-06-04T06:35:48;5;3;
77777;PMS5003;66966;-34.746;138.604;2023-06-04T06:38:14;4;3;
77777;PMS5003;66966;-34.746;138.604;2023-06-04T06:40:40;3;3;
77777;PMS5003;66966;-34.746;138.604;2023-06-04T06:43:05;4;4;
77777;PMS5003;66966;-34.746;138.604;2023-06-04T06:45:30;2;2;
77777;PMS5003;66966;-34.746;138.604;2023-06-04T06:47:55;3;3;
77777;PMS5003;66966;-34.746;138.604;2023-06-04T06:50:21;2;2;
77777;PMS5003;66966;-34.746;138.604;2023-06-04T06:52:46;2;2;
77777;PMS5003;66966;-34.746;138.604;2023-06-04T06:55:11;2;2;
77777;PMS5003;66966;-34.746;138.604;2023-06-04T06:57:37;3;3;
77777;PMS5003;66966;-34.746;138.604;2023-06-04T07:00:02;1;1;
77777;PMS5003;66966;-34.746;138.604;2023-06-04T07:02:28;2;2;
77777;PMS5003;66966;-34.746;138.604;2023-06-04T07:04:53;3;3;
77777;PMS5003;66966;-34.746;138.604;2023-06-04T07:07:18;2;2;
77777;PMS5003;66966;-34.746;138.604;2023-06-04T07:09:44;1;1;
77777;PMS5003;66966;-34.746;138.604;2023-06-04T07:12:09;2;2;
77777;PMS5003;66966;-34.746;138.604;2023-06-04T07:14:35;2;2;
77777;PMS5003;66966;-34.746;138.604;2023-06-04T07:17:00;2;2;
77777;PMS5003;66966;-34.746;138.604;2023-06-04T07:19:25;3;3;
77777;PMS5003;66966;-34.746;138.604;2023-06-04T07:21:53;2;2;
77777;PMS5003;66966;-34.746;138.604;2023-06-04T07:24:16;1;1;
77777;PMS5003;66966;-34.746;138.604;2023-06-04T07:26:42;1;1;
77777;PMS5003;66966;-34.746;138.604;2023-06-04T07:29:07;0;0;
77777;PMS5003;66966;-34.746;138.604;2023-06-04T07:31:33;1;1;
77777;PMS5003;66966;-34.746;138.604;2023-06-04T07:33:58;1;1;
77777;PMS5003;66966;-34.746;138.604;2023-06-04T07:36:23;3;3;
77777;PMS5003;66966;-34.746;138.604;2023-06-04T07:38:49;2;2;
77777;PMS5003;66966;-34.746;138.604;2023-06-04T07:41:14;4;3;
77777;PMS5003;66966;-34.746;138.604;2023-06-04T07:43:40;2;2;
77777;PMS5003;66966;-34.746;138.604;2023-06-04T07:46:05;2;2;
77777;PMS5003;66966;-34.746;138.604;2023-06-04T07:48:31;2;2;
77777;PMS5003;66966;-34.746;138.604;2023-06-04T07:50:57;3;2;
77777;PMS5003;66966;-34.746;138.604;2023-06-04T07:53:22;2;2;
77777;PMS5003;66966;-34.746;138.604;2023-06-04T07:55:47;2;1;
77777;PMS5003;66966;-34.746;138.604;2023-06-04T07:58:13;3;3;
77777;PMS5003;66966;-34.746;138.604;2023-06-04T08:00:38;3;3;
77777;PMS5003;66966;-34.746;138.604;2023-06-04T08:03:04;4;4;
77777;PMS5003;66966;-34.746;138.604;2023-06-04T08:05:29;3;3;
77777;PMS5003;66966;-34.746;138.604;2023-06-04T08:07:54;4;3;
77777;PMS5003;66966;-34.746;138.604;2023-06-04T08:10:20;3;3;
77777;PMS5003;66966;-34.746;138.604;2023-06-04T08:12:45;2;2;
77777;PMS5003;66966;-34.746;138.604;2023-06-04T08:15:11;2;2;
77777;PMS5003;66966;-34.746;138.604;2023-06-04T08:17:36;3;3;
77777;PMS5003;66966;-34.746;138.604;2023-06-04T08:20:02;2;2;
77777;PMS5003;66966;-34.746;138.604;2023-06-04T08:22:27;3;2;
77777;PMS5003;66966;-34.746;138.604;2023-06-04T08:24:52;3;3;
77777;PMS5003;66966;-34.746;138.604;2023-06-04T08:27:18;4;3;
77777;PMS5003;66966;-34.746;138.604;2023-06-04T08:29:43;3;3;
77777;PMS5003;66966;-34.746;138.604;2023-06-04T08:32:09;2;2;
77777;PMS5003;66966;-34.746;138.604;2023-06-04T08:34:34;3;3;
77777;PMS5003;66966;-34.746;138.604;2023-06-04T08:36:59;2;2;
77777;PMS5003;66966;-34.746;138.604;2023-06-04T08:39:25;4;4;
77777;PMS5003;66966;-34.746;138.604;2023-06-04T08:41:51;5;3;
77777;PMS5003;66966;-34.746;138.604;2023-06-04T08:44:16;4;4;
77777;PMS5003;66966;-34.746;138.604;2023-06-04T08:46:41;3;2;
77777;PMS5003;66966;-34.746;138.604;2023-06-04T08:49:07;3;3;
77777;PMS5003;66966;-34.746;138.604;2023-06-04T08:51:32;2;2;
77777;PMS5003;66966;-34.746;138.604;2023-06-04T08:53:57;4;3;
77777;PMS5003;66966;-34.746;138.604;2023-06-04T08:56:23;3;3;
77777;PMS5003;66966;-34.746;138.604;2023-06-04T08:58:49;3;3;
77777;PMS5003;66966;-34.746;138.604;2023-06-04T09:01:14;2;2;
77777;PMS5003;66966;-34.746;138.604;2023-06-04T09:03:40;3;3;
77777;PMS5003;66966;-34.746;138.604;2023-06-04T09:06:05;4;4;
77777;PMS5003;66966;-34.746;138.604;2023-06-04T09:08:31;3;3;
77777;PMS5003;66966;-34.746;138.604;2023-06-04T09:10:55;6;6;
77777;PMS5003;66966;-34.746;138.604;2023-06-04T09:13:22;6;6;
77777;PMS5003;66966;-34.746;138.604;2023-06-04T09:15:47;4;4;
77777;PMS5003;66966;-34.746;138.604;2023-06-04T09:18:12;3;3;
77777;PMS5003;66966;-34.746;138.604;2023-06-04T09:20:37;2;2;
77777;PMS5003;66966;-34.746;138.604;2023-06-04T09:25:28;5;4;
77777;PMS5003;66966;-34.746;138.604;2023-06-04T09:27:54;3;3;
77777;PMS5003;66966;-34.746;138.604;2023-06-04T09:30:19;3;3;
77777;PMS5003;66966;-34.746;138.604;2023-06-04T09:32:44;4;4;
77777;PMS5003;66966;-34.746;138.604;2023-06-04T09:35:10;3;3;
77777;PMS5003;66966;-34.746;138.604;2023-06-04T09:37:35;2;2;
77777;PMS5003;66966;-34.746;138.604;2023-06-04T09:40:01;3;3;
77777;PMS5003;66966;-34.746;138.604;2023-06-04T09:42:26;2;2;
77777;PMS5003;66966;-34.746;138.604;2023-06-04T09:44:51;3;3;
77777;PMS5003;66966;-34.746;138.604;2023-06-04T09:47:16;1;1;
77777;PMS5003;66966;-34.746;138.604;2023-06-04T09:49:43;2;2;
77777;PMS5003;66966;-34.746;138.604;2023-06-04T09:52:07;1;1;
77777;PMS5003;66966;-34.746;138.604;2023-06-04T09:54:35;2;2;
77777;PMS5003;66966;-34.746;138.604;2023-06-04T09:56:58;1;1;
77777;PMS5003;66966;-34.746;138.604;2023-06-04T09:59:24;3;3;
77777;PMS5003;66966;-34.746;138.604;2023-06-04T10:01:49;3;3;
77777;PMS5003;66966;-34.746;138.604;2023-06-04T10:04:14;4;3;
77777;PMS5003;66966;-34.746;138.604;2023-06-04T10:06:40;3;3;
77777;PMS5003;66966;-34.746;138.604;2023-06-04T10:09:06;2;2;
77777;PMS5003;66966;-34.746;138.604;2023-06-04T10:11:32;3;3;
77777;PMS5003;66966;-34.746;138.604;2023-06-04T10:13:59;4;4;
77777;PMS5003;66966;-34.746;138.604;2023-06-04T10:16:22;1;1;
77777;PMS5003;66966;-34.746;138.604;2023-06-04T10:18:48;2;2;
77777;PMS5003;66966;-34.746;138.604;2023-06-04T10:21:12;3;3;
77777;PMS5003;66966;-34.746;138.604;2023-06-04T10:23:38;2;1;
77777;PMS5003;66966;-34.746;138.604;2023-06-04T10:26:03;2;2;
77777;PMS5003;66966;-34.746;138.604;2023-06-04T10:28:29;3;3;
77777;PMS5003;66966;-34.746;138.604;2023-06-04T10:30:54;2;2;
77777;PMS5003;66966;-34.746;138.604;2023-06-04T10:33:20;2;2;
77777;PMS5003;66966;-34.746;138.604;2023-06-04T10:35:45;2;2;
77777;PMS5003;66966;-34.746;138.604;2023-06-04T10:38:11;3;3;
77777;PMS5003;66966;-34.746;138.604;2023-06-04T10:40:36;1;1;
77777;PMS5003;66966;-34.746;138.604;2023-06-04T10:43:05;3;3;
77777;PMS5003;66966;-34.746;138.604;2023-06-04T10:45:30;3;3;
77777;PMS5003;66966;-34.746;138.604;2023-06-04T10:50:18;3;3;
77777;PMS5003;66966;-34.746;138.604;2023-06-04T10:55:09;4;3;
77777;PMS5003;66966;-34.746;138.604;2023-06-04T10:57:34;3;3;
77777;PMS5003;66966;-34.746;138.604;2023-06-04T11:00:00;3;3;
77777;PMS5003;66966;-34.746;138.604;2023-06-04T11:02:24;3;2;
77777;PMS5003;66966;-34.746;138.604;2023-06-04T11:07:15;3;3;
77777;PMS5003;66966;-34.746;138.604;2023-06-04T11:12:07;7;4;
77777;PMS5003;66966;-34.746;138.604;2023-06-04T11:14:32;4;4;
77777;PMS5003;66966;-34.746;138.604;2023-06-04T11:16:57;5;5;
77777;PMS5003;66966;-34.746;138.604;2023-06-04T11:19:23;4;4;
77777;PMS5003;66966;-34.746;138.604;2023-06-04T11:21:48;3;3;
77777;PMS5003;66966;-34.746;138.604;2023-06-04T11:24:14;4;4;
77777;PMS5003;66966;-34.746;138.604;2023-06-04T11:26:39;4;4;
77777;PMS5003;66966;-34.746;138.604;2023-06-04T11:29:06;5;4;
77777;PMS5003;66966;-34.746;138.604;2023-06-04T11:31:40;3;3;
77777;PMS5003;66966;-34.746;138.604;2023-06-04T11:33:55;4;4;
77777;PMS5003;66966;-34.746;138.604;2023-06-04T11:36:23;4;4;
77777;PMS5003;66966;-34.746;138.604;2023-06-04T11:41:12;4;4;
77777;PMS5003;66966;-34.746;138.604;2023-06-04T11:43:38;5;5;
77777;PMS5003;66966;-34.746;138.604;2023-06-04T11:46:05;4;4;
77777;PMS5003;66966;-34.746;138.604;2023-06-04T11:48:29;3;3;
77777;PMS5003;66966;-34.746;138.604;2023-06-04T11:50:54;5;5;
77777;PMS5003;66966;-34.746;138.604;2023-06-04T11:53:19;3;3;
77777;PMS5003;66966;-34.746;138.604;2023-06-04T11:55:45;5;5;
77777;PMS5003;66966;-34.746;138.604;2023-06-04T11:58:10;5;5;
77777;PMS5003;66966;-34.746;138.604;2023-06-04T12:00:36;6;6;
77777;PMS5003;66966;-34.746;138.604;2023-06-04T12:03:01;4;4;
77777;PMS5003;66966;-34.746;138.604;2023-06-04T12:05:29;5;5;
77777;PMS5003;66966;-34.746;138.604;2023-06-04T12:07:52;6;5;
77777;PMS5003;66966;-34.746;138.604;2023-06-04T12:10:18;4;4;
77777;PMS5003;66966;-34.746;138.604;2023-06-04T12:12:43;4;3;
77777;PMS5003;66966;-34.746;138.604;2023-06-04T12:15:09;5;5;
77777;PMS5003;66966;-34.746;138.604;2023-06-04T12:17:34;4;4;
77777;PMS5003;66966;-34.746;138.604;2023-06-04T12:20:00;3;3;
77777;PMS5003;66966;-34.746;138.604;2023-06-04T12:22:25;4;4;
77777;PMS5003;66966;-34.746;138.604;2023-06-04T12:24:51;5;5;
77777;PMS5003;66966;-34.746;138.604;2023-06-04T12:27:16;5;4;
77777;PMS5003;66966;-34.746;138.604;2023-06-04T12:29:41;6;6;
77777;PMS5003;66966;-34.746;138.604;2023-06-04T12:32:08;5;5;
77777;PMS5003;66966;-34.746;138.604;2023-06-04T12:34:32;5;5;
77777;PMS5003;66966;-34.746;138.604;2023-06-04T12:36:58;5;5;
77777;PMS5003;66966;-34.746;138.604;2023-06-04T12:39:23;6;6;
77777;PMS5003;66966;-34.746;138.604;2023-06-04T12:41:49;5;5;
77777;PMS5003;66966;-34.746;138.604;2023-06-04T12:44:14;6;6;
77777;PMS5003;66966;-34.746;138.604;2023-06-04T12:46:39;7;7;
77777;PMS5003;66966;-34.746;138.604;2023-06-04T12:49:05;5;5;
77777;PMS5003;66966;-34.746;138.604;2023-06-04T12:51:30;7;7;
77777;PMS5003;66966;-34.746;138.604;2023-06-04T12:53:56;4;4;
77777;PMS5003;66966;-34.746;138.604;2023-06-04T12:56:21;5;5;
77777;PMS5003;66966;-34.746;138.604;2023-06-04T12:58:47;5;5;
77777;PMS5003;66966;-34.746;138.604;2023-06-04T13:01:13;5;5;
77777;PMS5003;66966;-34.746;138.604;2023-06-04T13:03:39;7;7;
77777;PMS5003;66966;-34.746;138.604;2023-06-04T13:06:03;6;5;
77777;PMS5003;66966;-34.746;138.604;2023-06-04T13:08:29;5;5;
77777;PMS5003;66966;-34.746;138.604;2023-06-04T13:10:55;7;6;
77777;PMS5003;66966;-34.746;138.604;2023-06-04T13:13:20;7;6;
77777;PMS5003;66966;-34.746;138.604;2023-06-04T13:15:45;6;5;
77777;PMS5003;66966;-34.746;138.604;2023-06-04T13:18:11;6;5;
77777;PMS5003;66966;-34.746;138.604;2023-06-04T13:20:36;6;6;
77777;PMS5003;66966;-34.746;138.604;2023-06-04T13:23:02;6;6;
77777;PMS5003;66966;-34.746;138.604;2023-06-04T13:25:27;4;4;
77777;PMS5003;66966;-34.746;138.604;2023-06-04T13:27:52;6;5;
77777;PMS5003;66966;-34.746;138.604;2023-06-04T13:30:18;5;5;
77777;PMS5003;66966;-34.746;138.604;2023-06-04T13:32:43;7;7;
77777;PMS5003;66966;-34.746;138.604;2023-06-04T13:35:09;6;6;
77777;PMS5003;66966;-34.746;138.604;2023-06-04T13:37:35;6;6;
77777;PMS5003;66966;-34.746;138.604;2023-06-04T13:40:00;5;5;
77777;PMS5003;66966;-34.746;138.604;2023-06-04T13:42:25;6;6;
77777;PMS5003;66966;-34.746;138.604;2023-06-04T13:44:51;6;5;
77777;PMS5003;66966;-34.746;138.604;2023-06-04T13:47:16;6;6;
77777;PMS5003;66966;-34.746;138.604;2023-06-04T13:49:42;6;6;
77777;PMS5003;66966;-34.746;138.604;2023-06-04T13:52:07;7;6;
77777;PMS5003;66966;-34.746;138.604;2023-06-04T13:54:32;5;5;
77777;PMS5003;66966;-34.746;138.604;2023-06-04T13:57:00;7;7;
77777;PMS5003;66966;-34.746;138.604;2023-06-04T13:59:23;5;5;
77777;PMS5003;66966;-34.746;138.604;2023-06-04T14:01:49;7;7;
77777;PMS5003;66966;-34.746;138.604;2023-06-04T14:04:14;5;5;
77777;PMS5003;66966;-34.746;138.604;2023-06-04T14:06:40;7;7;
77777;PMS5003;66966;-34.746;138.604;2023-06-04T14:09:05;7;7;
77777;PMS5003;66966;-34.746;138.604;2023-06-04T14:11:31;7;6;
77777;PMS5003;66966;-34.746;138.604;2023-06-04T14:13:56;6;6;
77777;PMS5003;66966;-34.746;138.604;2023-06-04T14:16:21;4;4;
77777;PMS5003;66966;-34.746;138.604;2023-06-04T14:18:47;6;6;
77777;PMS5003;66966;-34.746;138.604;2023-06-04T14:21:12;5;5;
77777;PMS5003;66966;-34.746;138.604;2023-06-04T14:23:38;5;5;
77777;PMS5003;66966;-34.746;138.604;2023-06-04T14:26:04;5;5;
77777;PMS5003;66966;-34.746;138.604;2023-06-04T14:28:29;8;6;
77777;PMS5003;66966;-34.746;138.604;2023-06-04T14:30:54;7;7;
77777;PMS5003;66966;-34.746;138.604;2023-06-04T14:33:20;7;7;
77777;PMS5003;66966;-34.746;138.604;2023-06-04T14:35:45;7;6;
77777;PMS5003;66966;-34.746;138.604;2023-06-04T14:38:11;6;6;
77777;PMS5003;66966;-34.746;138.604;2023-06-04T14:40:37;5;5;
77777;PMS5003;66966;-34.746;138.604;2023-06-04T14:43:01;5;5;
77777;PMS5003;66966;-34.746;138.604;2023-06-04T14:45:27;6;5;
77777;PMS5003;66966;-34.746;138.604;2023-06-04T14:47:52;6;6;
77777;PMS5003;66966;-34.746;138.604;2023-06-04T14:50:18;5;5;
77777;PMS5003;66966;-34.746;138.604;2023-06-04T14:52:43;6;6;
77777;PMS5003;66966;-34.746;138.604;2023-06-04T14:55:09;6;6;
77777;PMS5003;66966;-34.746;138.604;2023-06-04T14:57:34;6;6;
77777;PMS5003;66966;-34.746;138.604;2023-06-04T15:00:00;6;6;
77777;PMS5003;66966;-34.746;138.604;2023-06-04T15:02:25;5;5;
77777;PMS5003;66966;-34.746;138.604;2023-06-04T15:04:51;6;6;
77777;PMS5003;66966;-34.746;138.604;2023-06-04T15:07:16;5;5;
77777;PMS5003;66966;-34.746;138.604;2023-06-04T15:09:42;4;4;
77777;PMS5003;66966;-34.746;138.604;2023-06-04T15:12:07;5;5;
77777;PMS5003;66966;-34.746;138.604;2023-06-04T15:14:33;7;7;
77777;PMS5003;66966;-34.746;138.604;2023-06-04T15:16:58;7;7;
77777;PMS5003;66966;-34.746;138.604;2023-06-04T15:19:23;6;6;
77777;PMS5003;66966;-34.746;138.604;2023-06-04T15:21:49;7;7;
77777;PMS5003;66966;-34.746;138.604;2023-06-04T15:24:14;7;6;
77777;PMS5003;66966;-34.746;138.604;2023-06-04T15:26:40;7;7;
77777;PMS5003;66966;-34.746;138.604;2023-06-04T15:29:05;5;4;
77777;PMS5003;66966;-34.746;138.604;2023-06-04T15:31:31;6;6;
77777;PMS5003;66966;-34.746;138.604;2023-06-04T15:33:56;5;5;
77777;PMS5003;66966;-34.746;138.604;2023-06-04T15:36:21;4;4;
77777;PMS5003;66966;-34.746;138.604;2023-06-04T15:38:48;6;6;
77777;PMS5003;66966;-34.746;138.604;2023-06-04T15:41:12;5;5;
77777;PMS5003;66966;-34.746;138.604;2023-06-04T15:43:38;6;5;
77777;PMS5003;66966;-34.746;138.604;2023-06-04T15:46:03;6;6;
77777;PMS5003;66966;-34.746;138.604;2023-06-04T15:48:29;6;5;
77777;PMS5003;66966;-34.746;138.604;2023-06-04T15:50:55;6;6;
77777;PMS5003;66966;-34.746;138.604;2023-06-04T15:53:20;7;7;
77777;PMS5003;66966;-34.746;138.604;2023-06-04T15:55:45;7;6;
77777;PMS5003;66966;-34.746;138.604;2023-06-04T15:58:11;6;5;
77777;PMS5003;66966;-34.746;138.604;2023-06-04T16:00:36;5;5;
77777;PMS5003;66966;-34.746;138.604;2023-06-04T16:03:02;7;7;
77777;PMS5003;66966;-34.746;138.604;2023-06-04T16:05:27;5;5;